South Washington, Indiana
Current Conditions -  °F | °C
As of 5:55 AM on Saturday 01 Nov 2014 (Local Time) from KDCY Reporting Station
Clear Clear  
Wind Chill: 23°   Ceiling: Unl
Heat Index: 32°   Visibility: 10mi
Dew Point: 27°   Wind: 13mph
Humidity: 80%   Direction: 350°N
Pressure: 30.29"   Gusts: NA
Location:  38.6427°N, 87.1768°W
Report Text: KDCY 011055Z AUTO 35011KT 10SM CLR 00/M03 A3029 RMK AO2 T00021029
Loading
Personal Weather Stations






























Interactive Weather Map New forecast layout! Learn more

10-Day Weather Forecast

Advertisements
Track Severe Weather on mobile